Latest Weather Observations for Cape Jaffa

IDS60801

Issued at 2:31 am CST Tuesday 4 August 2015 (issued every 30 minutes, with the page automatically refreshed every 10 minutes)

About weather observations | Map of weather stations | Latest weather observations for SA | Other Formats
Station Details ID: 026095 Name: THE LIMESTONE Lat: -36.97 Lon: 139.72 Height: 17.0 m
Data from the previous 72 hours. | See also: Recent months at Cape Jaffa
Date/Time
CST
Temp
°C
App
Temp
°C
Dew
Point
Rel
Hum
%
Delta-T
°C
Wind Press
QNH
hPa
Press
MSL
hPa
Rain
since 9 am
mm
Dir
 
Spd
km/h
Gust
km/h
Spd
kts
Gust
kts
04/02:30am 8.0 3.5 4.0 76 1.7 W 17 20 9 11 1025.1 1025.1 0.2
04/02:00am 8.3 4.1 3.9 74 1.9 W 15 20 8 11 1025.3 1025.3 0.2
04/01:30am 8.6 3.9 3.4 70 2.2 SW 17 19 9 10 1025.3 1025.3 0.2
04/01:00am 7.9 3.9 2.8 70 2.1 SW 13 22 7 12 1025.3 1025.3 0.2
04/12:30am 8.6 2.6 3.6 71 2.1 SW 24 32 13 17 1025.3 1025.3 0.2
04/12:00am 8.5 3.8 3.4 70 2.2 SW 17 22 9 12 1025.5 1025.5 0.2
 
Date/Time
CST
Temp
°C
App
Temp
°C
Dew
Point
Rel
Hum
%
Delta-T
°C
Wind Press
QNH
hPa
Press
MSL
hPa
Rain
since 9 am
mm
Dir
 
Spd
km/h
Gust
km/h
Spd
kts
Gust
kts
03/11:30pm 7.8 3.8 2.9 71 2.0 SW 13 19 7 10 1025.7 1025.7 0.2
03/11:00pm 7.8 4.0 3.8 76 1.7 WSW 13 17 7 9 1025.7 1025.7 0.2
03/10:30pm 6.5 3.9 3.1 79 1.4 SSW 6 11 3 6 1025.8 1025.8 0.2
03/10:00pm 7.5 4.5 3.9 78 1.5 W 9 15 5 8 1025.9 1025.9 0.2
03/09:30pm 8.2 3.7 2.4 67 2.4 SW 15 20 8 11 1026.0 1026.0 0.0
03/09:00pm 6.8 3.2 3.1 77 1.5 SSW 11 13 6 7 1026.1 1026.1 0.0
03/08:30pm 7.3 3.8 3.7 78 1.5 SSW 11 17 6 9 1026.0 1026.0 0.0
03/08:00pm 7.6 3.5 4.2 79 1.5 SSW 15 22 8 12 1026.2 1026.2 0.0
03/07:30pm 7.9 2.9 4.8 81 1.4 SW 20 30 11 16 1026.1 1026.1 0.0
03/07:00pm 7.1 2.6 4.1 81 1.3 S 17 22 9 12 1025.9 1025.9 0.0
03/06:30pm 8.4 4.6 3.8 73 2.0 SW 13 20 7 11 1025.6 1025.6 0.0
03/06:00pm 7.6 4.5 3.8 77 1.6 SSE 9 11 5 6 1025.4 1025.4 0.0
03/05:30pm 8.0 3.5 4.2 77 1.6 S 17 20 9 11 1024.9 1024.9 0.0
03/05:00pm 8.9 3.3 3.3 68 2.4 SSW 22 28 12 15 1024.7 1024.7 0.0
03/04:30pm 9.0 2.6 3.0 66 2.5 SSW 26 32 14 17 1024.5 1024.5 0.0
03/04:00pm 10.2 3.9 3.7 64 2.9 SW 26 35 14 19 1024.1 1024.1 0.0
03/03:30pm 10.2 4.6 3.7 64 2.8 SSW 22 32 12 17 1024.0 1024.0 0.0
03/03:00pm 10.3 4.4 3.8 64 2.8 SSW 24 32 13 17 1023.9 1023.9 0.0
03/02:30pm 10.3 5.3 4.5 67 2.6 S 20 26 11 14 1023.7 1023.7 0.0
03/02:00pm 10.4 4.2 4.1 65 2.8 SSW 26 32 14 17 1023.5 1023.5 0.0
03/01:30pm 10.7 4.5 4.4 65 2.8 SSW 26 35 14 19 1023.4 1023.4 0.0
03/01:00pm 9.6 1.7 4.2 69 2.4 SSW 35 44 19 24 1023.4 1023.4 0.0
03/12:30pm 11.3 5.9 4.3 62 3.1 SW 22 32 12 17 1023.4 1023.4 0.0
03/12:00pm 10.8 3.2 5.8 71 2.3 SSW 35 43 19 23 1023.7 1023.7 0.0
03/11:30am 11.1 3.7 4.1 62 3.1 SSW 32 43 17 23 1023.5 1023.5 0.0
03/11:00am 11.1 4.3 5.0 66 2.8 SSW 30 37 16 20 1023.5 1023.5 0.0
03/10:30am 10.5 2.6 4.4 66 2.7 SSW 35 43 19 23 1023.3 1023.3 0.0
03/10:00am 10.4 2.8 5.8 73 2.1 SW 35 46 19 25 1023.0 1023.0 0.0
03/09:30am 10.6 2.3 4.3 65 2.8 SW 37 52 20 28 1022.3 1022.3 0.0
03/09:00am 10.5 3.4 5.3 70 2.4 SW 32 41 17 22 1022.2 1022.2 2.0
03/08:30am 9.3 0.0 3.1 65 2.6 SW 41 56 22 30 1021.7 1021.7 2.0
03/08:01am 9.9 2.1 4.7 70 2.3 SW 35 56 19 30 1021.3 1021.3 2.0
03/08:00am 9.8 1.9 4.4 69 2.4 SW 35 46 19 25 1021.2 1021.2 2.0
03/07:30am 9.5 0.3 3.5 66 2.6 SW 41 54 22 29 1020.8 1020.8 2.0
03/07:00am 9.9 0.9 4.5 69 2.4 SW 41 52 22 28 1020.1 1020.1 2.0
03/06:38am 9.6 1.3 6.0 78 1.7 SW 39 59 21 32 1020.0 1020.0 2.0
03/06:30am 9.1 -0.3 5.3 77 1.7 SW 44 59 24 32 1019.7 1019.7 2.0
03/06:25am 9.9 1.5 5.7 75 1.9 SW 39 57 21 31 1019.6 1019.6 2.0
03/06:00am 9.9 2.4 4.5 69 2.4 SW 33 52 18 28 1019.3 1019.3 2.0
03/05:30am 9.9 0.6 4.9 71 2.2 SW 43 56 23 30 1018.9 1018.9 2.0
03/05:03am 10.4 0.7 4.1 65 2.8 SW 44 63 24 34 1018.3 1018.3 2.0
03/05:00am 10.3 1.0 4.9 69 2.4 SW 43 59 23 32 1018.5 1018.5 2.0
03/04:53am 10.3 1.3 4.5 67 2.6 SW 41 59 22 32 1018.3 1018.3 2.0
03/04:30am 10.0 0.8 5.6 74 2.0 SW 43 57 23 31 1017.9 1017.9 2.0
03/04:05am 10.7 1.5 6.3 74 2.1 WSW 44 67 24 36 1017.7 1017.7 1.8
03/04:00am 10.6 1.5 6.0 73 2.1 WSW 43 57 23 31 1017.8 1017.8 1.8
03/03:30am 10.4 1.5 6.7 78 1.7 SW 43 56 23 30 1017.4 1017.4 1.8
03/03:00am 10.1 2.0 7.2 82 1.4 WSW 39 57 21 31 1017.5 1017.5 1.8
03/02:58am 10.1 2.3 6.8 80 1.6 WSW 37 57 20 31 1017.4 1017.4 1.8
03/02:30am 9.8 1.9 7.7 87 1.0 WSW 39 50 21 27 1017.7 1017.7 1.6
03/02:00am 10.6 1.5 6.9 78 1.8 W 44 56 24 30 1017.5 1017.5 1.0
03/01:30am 9.8 0.0 7.2 84 1.2 WSW 48 69 26 37 1017.5 1017.5 1.0
03/01:25am 10.2 0.4 7.1 81 1.5 WSW 48 69 26 37 1017.4 1017.4 0.8
03/01:00am 11.6 1.9 5.9 68 2.7 WSW 46 61 25 33 1017.2 1017.2 0.8
03/12:30am 10.5 0.5 6.1 74 2.0 W 48 74 26 40 1017.4 1017.4 0.8
03/12:00am 10.9 1.2 5.7 70 2.4 W 46 67 25 36 1017.2 1017.2 0.8
 
Date/Time
CST
Temp
°C
App
Temp
°C
Dew
Point
Rel
Hum
%
Delta-T
°C
Wind Press
QNH
hPa
Press
MSL
hPa
Rain
since 9 am
mm
Dir
 
Spd
km/h
Gust
km/h
Spd
kts
Gust
kts
02/11:46pm 11.4 1.9 6.5 72 2.3 WSW 46 70 25 38 1016.9 1016.9 0.8
02/11:30pm 11.4 2.4 6.5 72 2.3 WSW 43 57 23 31 1017.0 1017.0 0.8
02/11:03pm 10.3 -0.4 6.3 76 1.9 WSW 52 72 28 39 1017.0 1017.0 0.8
02/11:00pm 9.7 -1.5 5.9 77 1.7 WSW 54 72 29 39 1016.9 1016.9 0.8
02/10:54pm 9.9 -0.4 6.4 79 1.6 W 50 72 27 39 1017.1 1017.1 0.8
02/10:39pm 11.6 3.4 6.5 71 2.4 W 39 59 21 32 1017.1 1017.1 0.8
02/10:30pm 11.7 2.5 6.4 70 2.5 W 44 61 24 33 1017.0 1017.0 0.8
02/10:00pm 10.8 0.7 7.3 79 1.7 W 50 74 27 40 1017.0 1017.0 0.8
02/09:35pm 11.3 1.6 6.0 70 2.5 W 46 67 25 36 1016.8 1016.8 0.8
02/09:30pm 11.1 1.6 6.8 75 2.0 W 46 59 25 32 1016.9 1016.9 0.8
02/09:00pm 10.9 1.3 6.3 73 2.1 W 46 67 25 36 1016.8 1016.8 0.6
02/08:58pm 11.3 2.2 6.6 73 2.2 W 44 67 24 36 1016.9 1016.9 0.6
02/08:30pm 11.4 2.6 5.7 68 2.6 W 41 54 22 29 1016.6 1016.6 0.6
02/08:00pm 10.3 0.4 6.6 78 1.7 W 48 67 26 36 1016.8 1016.8 0.6
02/07:50pm 10.9 2.0 7.0 77 1.9 W 43 65 23 35 1016.6 1016.6 0.4
02/07:30pm 10.4 0.5 6.5 77 1.8 W 48 63 26 34 1016.6 1016.6 0.4
02/07:24pm 11.4 2.3 6.1 70 2.5 W 43 63 23 34 1016.3 1016.3 0.4
02/07:00pm 11.1 1.8 5.0 66 2.8 W 43 56 23 30 1016.3 1016.3 0.4
02/06:33pm 10.5 1.5 6.5 76 1.9 WSW 43 61 23 33 1016.0 1016.0 0.4
02/06:30pm 10.4 1.2 6.5 77 1.8 WSW 44 61 24 33 1016.0 1016.0 0.4
02/06:00pm 11.3 2.0 6.0 70 2.5 W 44 63 24 34 1015.5 1015.5 0.4
02/05:58pm 11.2 2.1 5.9 70 2.5 W 43 63 23 34 1015.3 1015.3 0.4
02/05:30pm 10.5 2.5 7.4 81 1.5 W 39 48 21 26 1015.4 1015.4 0.4
02/05:16pm 11.0 3.4 7.7 80 1.6 W 37 61 20 33 1015.3 1015.3 0.4
02/05:00pm 10.7 2.2 7.0 78 1.8 W 41 56 22 30 1015.2 1015.2 0.4
02/04:30pm 11.0 3.3 6.9 76 1.9 WSW 37 48 20 26 1015.0 1015.0 0.2
02/04:00pm 11.7 3.4 6.0 68 2.7 WSW 39 57 21 31 1014.9 1014.9 0.2
02/03:57pm 11.9 3.5 5.8 66 2.8 WSW 39 57 21 31 1014.7 1014.7 0.2
02/03:30pm 12.5 3.2 6.1 65 3.0 WSW 44 61 24 33 1014.6 1014.6 0.2
02/03:00pm 11.9 2.9 7.4 74 2.2 W 44 67 24 36 1014.5 1014.5 0.2
02/02:54pm 12.2 3.2 7.3 72 2.4 W 44 67 24 36 1014.3 1014.3 0.2
02/02:30pm 12.8 3.9 7.5 70 2.6 WSW 44 56 24 30 1014.1 1014.1 0.2
02/02:00pm 12.7 4.4 9.2 79 1.8 W 43 54 23 29 1014.0 1014.0 0.2
02/01:30pm 11.7 3.2 9.1 84 1.3 W 44 67 24 36 1014.0 1014.0 0.0
02/01:24pm 12.2 3.4 9.6 84 1.3 W 46 67 25 36 1013.9 1013.9 0.0
02/01:00pm 13.4 5.6 8.3 71 2.5 WNW 39 54 21 29 1013.8 1013.8 0.0
02/12:30pm 13.4 4.4 7.4 67 2.9 W 44 57 24 31 1014.3 1014.3 0.0
02/12:00pm 13.9 6.1 8.1 68 2.9 WNW 39 56 21 30 1014.7 1014.7 0.0
02/11:30am 13.2 4.9 7.6 69 2.7 WNW 41 52 22 28 1014.9 1014.9 0.0
02/11:00am 12.8 4.4 7.3 69 2.7 W 41 56 22 30 1015.2 1015.2 0.0
02/10:30am 12.7 4.4 7.8 72 2.4 W 41 57 22 31 1015.3 1015.3 0.0
02/10:00am 11.0 1.6 7.3 78 1.8 W 46 67 25 36 1015.2 1015.2 0.0
02/09:57am 12.1 3.3 7.4 73 2.3 W 43 67 23 36 1015.0 1015.0 0.0
02/09:30am 12.6 4.9 7.1 69 2.7 WNW 37 48 20 26 1015.0 1015.0 0.0
02/09:00am 11.7 3.8 6.4 70 2.5 WNW 37 48 20 26 1015.1 1015.1 0.8
02/08:32am 10.5 3.0 6.5 76 1.9 W 35 54 19 29 1015.3 1015.3 0.8
02/08:30am 10.3 2.5 6.6 78 1.7 W 37 54 20 29 1015.3 1015.3 0.8
02/08:20am 11.5 4.7 7.0 74 2.1 WNW 32 54 17 29 1015.3 1015.3 0.8
02/08:00am 9.9 3.8 6.4 79 1.6 W 28 39 15 21 1015.1 1015.1 0.8
02/07:56am 9.6 2.4 6.0 78 1.7 W 33 54 18 29 1015.1 1015.1 0.8
02/07:30am 10.6 4.0 6.2 74 2.0 W 30 46 16 25 1015.1 1015.1 0.4
02/07:00am 9.8 3.4 5.0 72 2.2 WNW 28 37 15 20 1014.9 1014.9 0.4
02/06:30am 10.1 5.1 6.3 77 1.8 W 22 32 12 17 1014.7 1014.7 0.4
02/06:03am 9.2 1.6 5.8 79 1.6 W 35 54 19 29 1014.7 1014.7 0.4
02/06:00am 9.1 1.1 5.8 80 1.5 W 37 54 20 29 1014.8 1014.8 0.4
02/05:55am 9.6 2.4 6.1 79 1.6 W 33 54 18 29 1014.6 1014.6 0.4
02/05:30am 9.9 3.0 4.7 70 2.3 W 30 41 16 22 1014.6 1014.6 0.4
02/05:00am 10.0 4.4 5.6 74 2.0 W 24 32 13 17 1014.7 1014.7 0.4
02/04:30am 9.4 3.3 4.6 72 2.1 W 26 35 14 19 1014.9 1014.9 0.4
02/04:00am 9.4 3.0 5.0 74 2.0 W 28 35 15 19 1015.1 1015.1 0.4
02/03:30am 9.3 4.0 4.9 74 2.0 WNW 22 28 12 15 1015.3 1015.3 0.4
02/03:00am 9.3 3.6 5.1 75 1.9 WSW 24 37 13 20 1015.7 1015.7 0.4
02/02:46am 9.2 2.8 5.2 76 1.8 W 28 46 15 25 1015.6 1015.6 0.4
02/02:30am 8.7 4.2 4.3 74 1.9 W 17 20 9 11 1015.8 1015.8 0.4
02/02:00am 8.5 5.0 5.6 82 1.3 WNW 13 35 7 19 1016.1 1016.1 0.4
02/01:30am 8.6 2.4 6.1 84 1.1 W 28 39 15 21 1016.5 1016.5 0.4
02/01:00am 10.0 5.3 5.2 72 2.2 WNW 19 33 10 18 1016.2 1016.2 0.0
02/12:30am 10.1 3.8 3.8 65 2.8 W 26 35 14 19 1016.4 1016.4 0.0
02/12:00am 9.8 3.2 4.0 67 2.5 W 28 39 15 21 1016.6 1016.6 0.0
 
Date/Time
CST
Temp
°C
App
Temp
°C
Dew
Point
Rel
Hum
%
Delta-T
°C
Wind Press
QNH
hPa
Press
MSL
hPa
Rain
since 9 am
mm
Dir
 
Spd
km/h
Gust
km/h
Spd
kts
Gust
kts
01/11:30pm 10.4 5.7 3.0 60 3.2 WNW 17 24 9 13 1016.6 1016.6 0.0
01/11:00pm 9.7 4.5 2.3 60 3.1 W 19 24 10 13 1016.8 1016.8 0.0
01/10:30pm 10.2 5.1 3.0 61 3.1 W 19 22 10 12 1016.9 1016.9 0.0
01/10:00pm 10.0 6.6 4.0 66 2.6 WNW 11 13 6 7 1017.1 1017.1 0.0
01/09:30pm 9.8 6.3 3.3 64 2.8 WNW 11 13 6 7 1017.1 1017.1 0.0
01/09:00pm 9.8 6.6 3.1 63 2.9 WNW 9 9 5 5 1017.1 1017.1 0.0
01/08:30pm 9.4 6.2 3.2 65 2.7 WNW 9 11 5 6 1016.9 1016.9 0.0
01/08:00pm 9.6 6.9 3.6 66 2.6 WNW 7 9 4 5 1016.9 1016.9 0.0
01/07:30pm 9.6 6.9 3.8 67 2.5 WNW 7 11 4 6 1016.8 1016.8 0.0
01/07:00pm 9.4 6.6 3.2 65 2.7 WNW 7 9 4 5 1016.9 1016.9 0.0
01/06:30pm 9.0 6.3 3.6 69 2.3 W 7 9 4 5 1016.5 1016.5 0.0
01/06:00pm 9.0 6.3 3.6 69 2.3 W 7 11 4 6 1016.4 1016.4 0.0
01/05:30pm 9.3 6.6 3.9 69 2.4 WSW 7 9 4 5 1016.1 1016.1 0.0
01/05:00pm 9.5 7.1 4.3 70 2.3 WSW 6 9 3 5 1016.1 1016.1 0.0
01/04:30pm 10.1 7.1 4.3 67 2.6 W 9 13 5 7 1016.1 1016.1 0.0
01/04:00pm 10.6 8.0 4.1 64 2.9 W 7 9 4 5 1016.0 1016.0 0.0
01/03:30pm 10.8 8.2 3.4 60 3.2 W 6 6 3 3 1015.8 1015.8 0.0
01/03:00pm 10.9 8.2 2.5 56 3.6 SW 6 7 3 4 1016.1 1016.1 0.0
01/02:30pm 11.3 8.3 2.3 54 3.9 W 7 11 4 6 1015.9 1015.9 0.0
01/02:00pm 11.6 8.9 2.4 53 4.0 SW 6 9 3 5 1015.9 1015.9 0.0
01/01:30pm 11.0 7.8 2.8 57 3.5 SW 9 13 5 7 1016.0 1016.0 0.0
01/01:00pm 11.0 7.1 1.3 51 4.1 SW 11 15 6 8 1016.5 1016.5 0.0
01/12:30pm 10.9 6.0 2.0 54 3.8 SSW 17 20 9 11 1016.6 1016.6 0.0
01/12:00pm 11.5 6.9 3.8 59 3.4 SSW 17 19 9 10 1016.7 1016.7 0.0
01/11:30am 11.1 5.9 2.7 56 3.6 SSW 19 20 10 11 1016.7 1016.7 0.0
01/11:00am 10.9 5.8 3.2 59 3.4 SSW 19 24 10 13 1016.6 1016.6 0.0
01/10:30am 10.9 5.6 3.0 58 3.4 SSW 20 28 11 15 1016.5 1016.5 0.0
01/10:00am 10.5 5.2 2.8 59 3.3 SSW 20 26 11 14 1016.3 1016.3 0.0
01/09:30am 10.2 5.2 3.7 64 2.8 SSW 19 24 10 13 1016.0 1016.0 0.0
01/09:00am 9.7 3.5 2.3 60 3.1 SSW 24 33 13 18 1016.0 1016.0 2.0
01/08:30am 9.8 3.8 3.5 65 2.7 SW 24 33 13 18 1015.7 1015.7 2.0
01/08:00am 9.5 2.6 2.6 62 2.9 SSW 28 35 15 19 1015.1 1015.1 2.0
01/07:30am 9.9 3.3 4.1 67 2.6 SW 28 35 15 19 1014.5 1014.5 2.0
01/07:00am 10.0 3.2 5.2 72 2.2 SSW 30 41 16 22 1013.5 1013.5 2.0
01/06:30am 10.5 4.9 5.5 71 2.3 SW 24 33 13 18 1013.1 1013.1 2.0
01/06:00am 10.5 4.1 5.1 69 2.5 SW 28 37 15 20 1012.7 1012.7 2.0
01/05:30am 10.4 2.7 5.4 71 2.3 SW 35 44 19 24 1012.2 1012.2 2.0
01/05:00am 10.5 3.0 6.5 76 1.9 SSW 35 44 19 24 1011.6 1011.6 2.0
01/04:30am 10.4 2.4 7.3 81 1.5 SSW 39 52 21 28 1010.9 1010.9 2.0
01/04:00am 10.5 3.0 7.9 84 1.3 SW 37 48 20 26 1010.6 1010.6 2.0
01/03:30am 10.3 3.0 8.7 90 0.8 SW 37 46 20 25 1010.0 1010.0 2.0
01/03:00am 10.8 3.3 9.4 91 0.7 SW 39 54 21 29 1009.7 1009.7 1.8
01/02:50am 11.0 4.7 9.6 91 0.7 WSW 33 52 18 28 1009.6 1009.6 1.8

Other Formats:

Comma delimited format used in spreadsheet applications
http://www.bom.gov.au/fwo/IDS60801/IDS60801.94813.axf

JavaScript Object Notation format (JSON) in row-major order
http://www.bom.gov.au/fwo/IDS60801/IDS60801.94813.json